createdAt,value
2022-08-14T00:02:41.532Z,101034.34
2022-08-14T00:07:42.006Z,101028.99
2022-08-14T00:13:06.711Z,101025.88
2022-08-14T00:18:10.961Z,101019.73
2022-08-14T00:23:19.585Z,101021.61
2022-08-14T00:28:29.064Z,101011.04
2022-08-14T00:33:52.381Z,101002.52
2022-08-14T00:38:43.124Z,101005.91
2022-08-14T00:43:49.074Z,101004.51
2022-08-14T00:48:54.623Z,100997.00
2022-08-14T00:54:03.215Z,100999.50
2022-08-14T00:59:11.602Z,100990.56
2022-08-14T01:04:38.237Z,100988.31
2022-08-14T01:09:26.758Z,100992.99
2022-08-14T01:14:35.647Z,100988.86
2022-08-14T01:19:59.255Z,100987.81
2022-08-14T01:25:07.833Z,100986.50
2022-08-14T01:30:20.941Z,100986.80
2022-08-14T01:36:01.437Z,100990.65
2022-08-14T01:40:33.206Z,100986.48
2022-08-14T01:45:40.595Z,100987.17
2022-08-14T01:50:45.906Z,100987.63
2022-08-14T01:55:51.774Z,100986.34
2022-08-14T02:00:58.880Z,100992.08
2022-08-14T02:06:31.941Z,100987.39
2022-08-14T02:11:25.026Z,100982.05
2022-08-14T02:16:35.794Z,100972.37
2022-08-14T02:21:47.173Z,100972.50
2022-08-14T02:28:18.608Z,100975.25
2022-08-14T02:32:02.922Z,100973.33
2022-08-14T02:37:11.185Z,100967.61
2022-08-14T02:42:23.740Z,100970.08
2022-08-14T02:47:32.008Z,100961.54
2022-08-14T02:52:55.986Z,100960.58
2022-08-14T02:57:45.066Z,100961.73
2022-08-14T03:02:58.702Z,100957.80
2022-08-14T03:08:16.032Z,100957.95
2022-08-14T03:13:22.079Z,100957.61
2022-08-14T03:18:31.247Z,100961.47
2022-08-14T03:23:38.413Z,100962.45
2022-08-14T03:28:47.890Z,100952.37
2022-08-14T03:33:54.652Z,100956.09
2022-08-14T03:39:15.296Z,100961.39
2022-08-14T03:45:27.290Z,100958.96
2022-08-14T03:49:28.144Z,100965.20
2022-08-14T03:54:24.702Z,100953.98
2022-08-14T03:59:31.085Z,100946.36
2022-08-14T04:04:38.315Z,100947.58
2022-08-14T04:09:45.178Z,100955.12
2022-08-14T04:14:52.503Z,100946.81
2022-08-14T04:20:00.513Z,100946.22
2022-08-14T04:25:07.936Z,100939.75
2022-08-14T04:30:32.897Z,100937.80
2022-08-14T04:35:23.682Z,100944.95
2022-08-14T04:40:47.136Z,100939.25
2022-08-14T04:45:53.209Z,100940.38
2022-08-14T04:50:58.923Z,100941.55
2022-08-14T04:56:29.956Z,100931.87
2022-08-14T05:01:19.415Z,100931.50
2022-08-14T05:06:38.293Z,100916.80
2022-08-14T05:11:36.462Z,100924.57
2022-08-14T05:16:40.868Z,100908.44
2022-08-14T05:21:59.714Z,100919.53
2022-08-14T05:26:54.453Z,100918.20
2022-08-14T05:32:02.648Z,100918.89
2022-08-14T05:37:08.441Z,100923.66
2022-08-14T05:42:21.537Z,100922.42
2022-08-14T05:47:24.082Z,100913.92
2022-08-14T05:52:39.353Z,100903.56
2022-08-14T05:57:49.740Z,100906.50
2022-08-14T06:02:56.426Z,100903.45
2022-08-14T06:08:08.636Z,100906.55
2022-08-14T06:13:12.841Z,100903.83
2022-08-14T06:18:18.831Z,100903.34
2022-08-14T06:23:24.418Z,100891.97
2022-08-14T06:28:30.154Z,100893.55
2022-08-14T06:35:04.236Z,100896.20
2022-08-14T06:38:42.936Z,100885.64
2022-08-14T06:43:49.236Z,100876.09
2022-08-14T06:48:54.784Z,100874.42
2022-08-14T06:54:01.068Z,100871.52
2022-08-14T06:59:07.244Z,100871.34
2022-08-14T07:04:32.604Z,100874.77
2022-08-14T07:09:44.371Z,100878.50
2022-08-14T07:14:46.194Z,100878.47
2022-08-14T07:19:52.983Z,100874.82
2022-08-14T07:24:58.519Z,100870.17
2022-08-14T07:30:06.395Z,100862.44
2022-08-14T07:35:13.678Z,100860.50
2022-08-14T07:40:27.355Z,100868.62
2022-08-14T07:45:26.413Z,100870.58
2022-08-14T07:50:37.294Z,100869.05
2022-08-14T07:55:43.897Z,100870.09
2022-08-14T08:00:51.316Z,100860.59
2022-08-14T08:05:58.456Z,100851.98
2022-08-14T08:11:08.479Z,100845.19
2022-08-14T08:16:12.045Z,100839.63
2022-08-14T08:21:18.095Z,100830.89
2022-08-14T08:26:26.624Z,100825.05
2022-08-14T08:31:35.137Z,100821.75
2022-08-14T08:36:46.630Z,100819.34
2022-08-14T08:41:53.838Z,100815.03
2022-08-14T08:47:01.353Z,100822.41
2022-08-14T08:52:15.394Z,100807.55
2022-08-14T08:57:16.060Z,100811.41
2022-08-14T09:02:26.036Z,100806.80
2022-08-14T09:07:31.486Z,100796.79
2022-08-14T09:12:37.098Z,100799.34
2022-08-14T09:17:44.396Z,100792.13
2022-08-14T09:22:52.960Z,100789.78
2022-08-14T09:28:00.068Z,100783.64
2022-08-14T09:33:14.621Z,100790.83
2022-08-14T09:38:30.158Z,100773.73
2022-08-14T09:43:41.461Z,100770.43
2022-08-14T09:48:49.683Z,100765.42
2022-08-14T09:54:06.116Z,100758.45
2022-08-14T09:59:16.067Z,100750.72
2022-08-14T10:04:34.942Z,100754.41
2022-08-14T10:09:37.748Z,100747.02
2022-08-14T10:14:44.958Z,100728.58
2022-08-14T10:19:52.152Z,100723.26
2022-08-14T10:24:59.897Z,100718.31
2022-08-14T10:30:12.213Z,100722.87
2022-08-14T10:35:17.436Z,100716.31
2022-08-14T10:40:43.788Z,100706.11
2022-08-14T10:45:42.150Z,100699.38
2022-08-14T10:50:48.601Z,100685.42
2022-08-14T10:55:57.272Z,100682.07
2022-08-14T11:01:05.727Z,100674.71
2022-08-14T11:06:21.074Z,100667.64
2022-08-14T11:11:28.610Z,100661.17
2022-08-14T11:16:38.222Z,100662.77
2022-08-14T11:21:45.662Z,100654.88
2022-08-14T11:26:52.988Z,100650.41
2022-08-14T11:32:00.476Z,100646.20
2022-08-14T11:37:19.335Z,100640.84
2022-08-14T11:42:57.236Z,100628.88
2022-08-14T11:47:43.958Z,100622.09
2022-08-14T11:52:46.100Z,100613.41
2022-08-14T11:58:06.044Z,100610.23
2022-08-14T12:03:14.794Z,100609.23
2022-08-14T12:08:24.636Z,100604.86
2022-08-14T12:13:31.751Z,100594.09
2022-08-14T12:18:42.060Z,100593.09
2022-08-14T12:23:52.065Z,100579.49
2022-08-14T12:29:13.149Z,100584.09
2022-08-14T12:34:24.095Z,100570.30
2022-08-14T12:39:27.689Z,100570.72
2022-08-14T12:44:38.459Z,100565.27
2022-08-14T12:49:52.696Z,100551.30
2022-08-14T12:55:08.188Z,100534.88
2022-08-14T13:00:23.235Z,100532.77
2022-08-14T13:05:30.690Z,100518.86
2022-08-14T13:10:47.853Z,100520.58
2022-08-14T13:15:55.972Z,100499.63
2022-08-14T13:21:01.787Z,100496.80
2022-08-14T13:26:08.301Z,100485.34
2022-08-14T13:31:16.336Z,100485.77
2022-08-14T13:36:23.874Z,100475.11
2022-08-14T13:41:34.687Z,100479.25
2022-08-14T13:46:37.686Z,100460.02
2022-08-14T13:51:47.425Z,100460.34
2022-08-14T13:56:55.514Z,100443.06
2022-08-14T14:02:07.996Z,100444.44
2022-08-14T14:07:16.266Z,100446.02
2022-08-14T14:12:49.206Z,100430.30
2022-08-14T14:17:31.669Z,100432.36
2022-08-14T14:23:01.246Z,100410.42
2022-08-14T14:27:49.130Z,100413.95
2022-08-14T14:33:04.279Z,100406.96
2022-08-14T14:38:09.115Z,100413.58
2022-08-14T14:43:17.750Z,100402.09
2022-08-14T14:48:54.501Z,100390.51
2022-08-14T14:54:02.809Z,100393.17
2022-08-14T14:59:10.509Z,100381.09
2022-08-14T15:04:20.651Z,100377.48
2022-08-14T15:09:24.377Z,100372.27
2022-08-14T15:14:54.808Z,100377.62
2022-08-14T15:19:37.970Z,100375.67
2022-08-14T15:24:46.581Z,100370.31
2022-08-14T15:29:52.092Z,100364.77
2022-08-14T15:34:58.229Z,100357.23
2022-08-14T15:40:05.641Z,100350.59
2022-08-14T15:45:12.802Z,100340.34
2022-08-14T15:50:20.069Z,100346.67
2022-08-14T15:55:25.733Z,100345.91
2022-08-14T16:00:55.255Z,100347.48
2022-08-14T16:06:01.235Z,100338.71
2022-08-14T16:11:09.313Z,100341.12
2022-08-14T16:16:35.036Z,100347.34
2022-08-14T16:22:02.666Z,100340.15
2022-08-14T16:26:51.771Z,100332.73
2022-08-14T16:31:59.218Z,100331.11
2022-08-14T16:37:05.027Z,100314.40
2022-08-14T16:42:39.027Z,100312.95
2022-08-14T16:47:22.433Z,100304.46
2022-08-14T16:52:54.593Z,100300.55
2022-08-14T16:57:35.396Z,100306.50
2022-08-14T17:02:43.553Z,100309.93
2022-08-14T17:08:31.753Z,100306.50
2022-08-14T17:13:47.403Z,100302.35
2022-08-14T17:18:41.495Z,100298.75
2022-08-14T17:23:47.120Z,100311.20
2022-08-14T17:28:58.458Z,100309.91
2022-08-14T17:34:04.414Z,100313.36
2022-08-14T17:39:16.385Z,100311.47
2022-08-14T17:44:34.483Z,100319.11
2022-08-14T17:49:40.320Z,100315.76
2022-08-14T17:54:52.957Z,100321.05
2022-08-14T17:59:57.104Z,100322.25
2022-08-14T18:05:03.486Z,100330.67
2022-08-14T18:10:51.988Z,100331.20
2022-08-14T18:15:18.310Z,100341.11
2022-08-14T18:21:41.708Z,100343.27
2022-08-14T18:25:36.995Z,100350.20
2022-08-14T18:30:58.803Z,100354.30
2022-08-14T18:35:59.870Z,100359.05
2022-08-14T18:41:04.278Z,100351.27
2022-08-14T18:47:00.032Z,100346.70
2022-08-14T18:51:22.196Z,100346.87
2022-08-14T18:56:58.008Z,100348.16
2022-08-14T19:02:30.459Z,100344.83
2022-08-14T19:07:36.942Z,100347.80
2022-08-14T19:12:57.287Z,100340.53
2022-08-14T19:18:25.927Z,100344.88
2022-08-14T19:23:42.330Z,100344.55
2022-08-14T19:28:50.560Z,100351.33
2022-08-14T19:33:59.228Z,100353.13
2022-08-14T19:39:12.117Z,100342.05
2022-08-14T19:44:20.631Z,100345.11
2022-08-14T19:50:25.026Z,100341.93
2022-08-14T19:54:47.253Z,100342.03
2022-08-14T20:00:06.268Z,100342.27
2022-08-14T20:05:16.269Z,100346.48
2022-08-14T20:11:08.346Z,100343.64
2022-08-14T20:15:47.681Z,100338.73
2022-08-14T20:20:50.414Z,100353.62
2022-08-14T20:25:58.597Z,100358.87
2022-08-14T20:31:19.641Z,100352.80
2022-08-14T20:36:31.232Z,100355.54
2022-08-14T20:41:39.738Z,100354.42
2022-08-14T20:46:46.284Z,100363.18
2022-08-14T20:51:59.592Z,100366.80
2022-08-14T20:57:14.137Z,100362.56
2022-08-14T21:02:46.252Z,100361.19
2022-08-14T21:07:42.036Z,100360.13
2022-08-14T21:13:26.521Z,100349.83
2022-08-14T21:17:56.547Z,100361.02
2022-08-14T21:23:04.552Z,100363.11
2022-08-14T21:28:29.856Z,100350.19
2022-08-14T21:33:22.819Z,100347.23
2022-08-14T21:38:33.589Z,100338.49
2022-08-14T21:43:36.862Z,100332.59
2022-08-14T21:48:44.375Z,100332.14
2022-08-14T21:53:58.707Z,100320.92
2022-08-14T21:58:59.906Z,100313.31
2022-08-14T22:04:32.621Z,100305.84
2022-08-14T22:09:16.764Z,100300.70
2022-08-14T22:14:26.126Z,100297.07
2022-08-14T22:19:34.713Z,100298.05
2022-08-14T22:24:38.806Z,100295.70
2022-08-14T22:29:46.090Z,100277.66
2022-08-14T22:34:53.295Z,100285.61
2022-08-14T22:40:48.364Z,100292.25
2022-08-14T22:45:08.878Z,100286.27
2022-08-14T22:50:32.070Z,100301.19
2022-08-14T22:55:22.757Z,100295.08
2022-08-14T23:00:31.659Z,100293.14
2022-08-14T23:05:39.604Z,100288.38
2022-08-14T23:10:44.565Z,100286.60
2022-08-14T23:15:52.142Z,100288.77
2022-08-14T23:20:57.912Z,100284.91
2022-08-14T23:26:47.323Z,100280.66
2022-08-14T23:31:35.031Z,100280.52
2022-08-14T23:36:36.909Z,100275.95
2022-08-14T23:41:46.931Z,100281.23
2022-08-14T23:46:47.774Z,100271.75
2022-08-14T23:52:51.127Z,100274.80
2022-08-14T23:57:03.742Z,100273.63
